Time;durP1;ratioP1;P1;durP2;ratioP2;P2;SDS_P1;SDS_P2;PMS_P1;PMS_P2;Temp;Humidity;BMP_temperature;BMP_pressure;BME280_temperature;BME280_humidity;BME280_pressure;Samples;Min_cycle;Max_cycle;Signal;HPM_P1;HPM_P2
2022/11/25 00:00:43;;;;;;;;;4.00;4.00;;;;;;;;5061990;28;61794;-78
2022/11/25 00:03:08;;;;;;;;;7.25;3.75;;;;;;;;5062094;28;61767;-79
2022/11/25 00:05:33;;;;;;;;;1.25;1.25;;;;;;;;5060789;28;61773;-79
2022/11/25 00:07:59;;;;;;;;;3.00;1.00;;;;;;;;5062122;28;62005;-79
2022/11/25 00:10:24;;;;;;;;;2.25;2.00;;;;;;;;5061783;28;61933;-79
2022/11/25 00:12:49;;;;;;;;;2.50;1.00;;;;;;;;5062374;28;61904;-79
2022/11/25 00:15:14;;;;;;;;;4.00;3.00;;;;;;;;5061165;28;62621;-79
2022/11/25 00:17:40;;;;;;;;;3.00;2.00;;;;;;;;5062053;28;61714;-79
2022/11/25 00:20:05;;;;;;;;;4.50;1.75;;;;;;;;5043119;28;62068;-79
2022/11/25 00:22:31;;;;;;;;;2.00;2.00;;;;;;;;5061895;28;61978;-79
2022/11/25 00:24:56;;;;;;;;;1.00;1.00;;;;;;;;5063810;28;61686;-79
2022/11/25 00:27:21;;;;;;;;;9.75;2.75;;;;;;;;5047281;28;62000;-78
2022/11/25 00:29:46;;;;;;;;;8.00;1.00;;;;;;;;5065374;28;61972;-78
2022/11/25 00:32:12;;;;;;;;;1.00;1.00;;;;;;;;5047589;28;61822;-79
2022/11/25 00:34:37;;;;;;;;;3.50;2.75;;;;;;;;5063982;28;62502;-79
2022/11/25 00:37:02;;;;;;;;;3.50;1.50;;;;;;;;5065036;28;62074;-79
2022/11/25 00:39:27;;;;;;;;;1.50;0.75;;;;;;;;5065054;28;62023;-78
2022/11/25 00:44:40;;;;;;;;;3.75;1.50;;;;;;;;5064317;28;61856;-78
2022/11/25 00:47:07;;;;;;;;;3.00;0.00;;;;;;;;5064999;28;61802;-79
2022/11/25 00:49:33;;;;;;;;;2.00;1.00;;;;;;;;5064360;28;61802;-80
2022/11/25 00:51:58;;;;;;;;;1.75;1.00;;;;;;;;5065329;28;61702;-79
2022/11/25 00:54:23;;;;;;;;;2.00;1.75;;;;;;;;5064280;28;62313;-78
2022/11/25 00:56:49;;;;;;;;;1.00;1.00;;;;;;;;5064847;28;61948;-79
2022/11/25 00:59:14;;;;;;;;;3.25;0.25;;;;;;;;5064723;28;61951;-78
2022/11/25 01:01:40;;;;;;;;;1.00;1.00;;;;;;;;5064869;28;61912;-78
2022/11/25 01:04:05;;;;;;;;;7.25;1.25;;;;;;;;5063667;28;62588;-78
2022/11/25 01:06:31;;;;;;;;;1.75;1.00;;;;;;;;5064379;28;61948;-79
2022/11/25 01:08:56;;;;;;;;;3.00;2.00;;;;;;;;5064917;28;61848;-78
2022/11/25 01:11:22;;;;;;;;;4.50;1.00;;;;;;;;5064775;28;62100;-78
2022/11/25 01:13:47;;;;;;;;;1.00;1.00;;;;;;;;5063863;28;63062;-78
2022/11/25 01:16:14;;;;;;;;;0.25;0.25;;;;;;;;5064511;28;62465;-78
2022/11/25 01:18:40;;;;;;;;;2.50;1.00;;;;;;;;5064067;28;61941;-78
2022/11/25 01:21:06;;;;;;;;;4.75;1.00;;;;;;;;5064365;28;61700;-79
2022/11/25 01:23:31;;;;;;;;;6.25;1.00;;;;;;;;5064060;28;61792;-78
2022/11/25 01:25:59;;;;;;;;;2.00;0.50;;;;;;;;5064171;28;62156;-78
2022/11/25 01:28:24;;;;;;;;;4.25;2.00;;;;;;;;5064512;28;61894;-78
2022/11/25 01:30:57;;;;;;;;;0.25;0.25;;;;;;;;5064602;28;61962;-78
2022/11/25 01:33:24;;;;;;;;;6.50;0.25;;;;;;;;5063791;28;63382;-78
2022/11/25 01:35:49;;;;;;;;;5.00;1.00;;;;;;;;5061800;28;61827;-79
2022/11/25 01:38:14;;;;;;;;;2.00;2.00;;;;;;;;5064426;28;61752;-78
2022/11/25 01:40:39;;;;;;;;;2.25;1.25;;;;;;;;5064372;28;62102;-79
2022/11/25 01:43:05;;;;;;;;;2.00;2.00;;;;;;;;5063469;28;61855;-78
2022/11/25 01:45:35;;;;;;;;;2.50;2.00;;;;;;;;5063961;28;61975;-78
2022/11/25 01:48:23;;;;;;;;;3.25;2.00;;;;;;;;5063615;28;61825;-78
2022/11/25 01:50:49;;;;;;;;;1.00;1.00;;;;;;;;5063396;28;61955;-78
2022/11/25 01:53:15;;;;;;;;;2.00;2.00;;;;;;;;5063541;28;61817;-78
2022/11/25 01:55:47;;;;;;;;;1.00;1.00;;;;;;;;5064179;28;62175;-78
2022/11/25 01:58:16;;;;;;;;;3.00;1.00;;;;;;;;5064029;28;62210;-78
2022/11/25 02:00:49;;;;;;;;;0.50;0.50;;;;;;;;5063960;28;61822;-78
2022/11/25 02:03:15;;;;;;;;;3.25;1.00;;;;;;;;5062935;28;61867;-79
2022/11/25 02:06:03;;;;;;;;;4.00;1.00;;;;;;;;5063011;28;62253;-78
2022/11/25 02:08:29;;;;;;;;;2.00;1.00;;;;;;;;5063991;28;61859;-78
2022/11/25 02:10:54;;;;;;;;;3.50;1.25;;;;;;;;5063961;28;61927;-78
2022/11/25 02:13:21;;;;;;;;;1.00;1.00;;;;;;;;5063118;28;62160;-79
2022/11/25 02:15:46;;;;;;;;;0.75;0.75;;;;;;;;5063271;28;61772;-78
2022/11/25 02:18:12;;;;;;;;;3.00;1.00;;;;;;;;5063729;28;61735;-78
2022/11/25 02:20:38;;;;;;;;;2.50;2.00;;;;;;;;5063052;28;61928;-78
2022/11/25 02:23:27;;;;;;;;;2.25;1.75;;;;;;;;5062756;28;62504;-79
2022/11/25 02:25:52;;;;;;;;;6.25;3.00;;;;;;;;5045395;28;61783;-78
2022/11/25 02:28:19;;;;;;;;;2.00;1.00;;;;;;;;5063567;28;61691;-78
2022/11/25 02:30:45;;;;;;;;;2.50;1.00;;;;;;;;5063495;28;61788;-78
2022/11/25 02:33:11;;;;;;;;;1.25;1.25;;;;;;;;5062580;28;61863;-78
2022/11/25 02:35:42;;;;;;;;;3.50;1.00;;;;;;;;5062696;28;62203;-80
2022/11/25 02:38:14;;;;;;;;;1.75;1.75;;;;;;;;5063471;28;61881;-79
2022/11/25 02:40:42;;;;;;;;;3.00;1.75;;;;;;;;5063632;28;61874;-78
2022/11/25 02:43:08;;;;;;;;;2.50;2.00;;;;;;;;5062403;28;61968;-78
2022/11/25 02:45:56;;;;;;;;;2.75;0.50;;;;;;;;5062839;28;61968;-78
2022/11/25 02:48:21;;;;;;;;;0.00;0.00;;;;;;;;5034094;28;62021;-78
2022/11/25 02:50:47;;;;;;;;;4.00;2.00;;;;;;;;5062815;28;61840;-78
2022/11/25 02:53:12;;;;;;;;;2.25;1.00;;;;;;;;5062259;28;62684;-78
2022/11/25 02:55:37;;;;;;;;;9.75;1.00;;;;;;;;5062759;28;61893;-78
2022/11/25 02:58:03;;;;;;;;;2.75;1.00;;;;;;;;5063027;28;62129;-78
2022/11/25 03:00:28;;;;;;;;;1.00;1.00;;;;;;;;5062670;28;62419;-79
2022/11/25 03:02:53;;;;;;;;;2.00;2.00;;;;;;;;5062288;28;61784;-79
2022/11/25 03:05:20;;;;;;;;;2.00;2.00;;;;;;;;5062096;28;62266;-78
2022/11/25 03:07:45;;;;;;;;;3.00;1.00;;;;;;;;5062870;28;62005;-78
2022/11/25 03:10:11;;;;;;;;;1.25;0.00;;;;;;;;5045021;28;62232;-78
2022/11/25 03:12:36;;;;;;;;;4.75;1.25;;;;;;;;5062257;28;62677;-79
2022/11/25 03:15:01;;;;;;;;;0.00;0.00;;;;;;;;5062590;28;61707;-78
2022/11/25 03:17:27;;;;;;;;;2.00;1.00;;;;;;;;5062436;28;61700;-81
2022/11/25 03:19:52;;;;;;;;;2.00;1.00;;;;;;;;5062667;28;61815;-80
2022/11/25 03:22:18;;;;;;;;;1.25;1.25;;;;;;;;5062187;28;61691;-79
2022/11/25 03:24:43;;;;;;;;;1.50;1.50;;;;;;;;5062670;28;61865;-79
2022/11/25 03:27:08;;;;;;;;;1.00;1.00;;;;;;;;5062534;28;61802;-78
2022/11/25 03:29:34;;;;;;;;;4.75;0.50;;;;;;;;5062497;28;61997;-78
2022/11/25 03:31:59;;;;;;;;;3.00;1.50;;;;;;;;5061946;28;62182;-78
2022/11/25 03:34:24;;;;;;;;;3.00;1.00;;;;;;;;5062144;28;62036;-78
2022/11/25 03:36:50;;;;;;;;;3.50;1.00;;;;;;;;5062243;28;61947;-78
2022/11/25 03:39:15;;;;;;;;;3.25;2.00;;;;;;;;5062720;28;61774;-79
2022/11/25 03:41:41;;;;;;;;;2.25;1.00;;;;;;;;5061591;28;61808;-79
2022/11/25 03:44:06;;;;;;;;;3.75;0.25;;;;;;;;5062209;28;61771;-78
2022/11/25 03:46:31;;;;;;;;;2.00;1.00;;;;;;;;5061938;28;61841;-79
2022/11/25 03:48:57;;;;;;;;;1.75;1.75;;;;;;;;5044098;28;61773;-79
2022/11/25 03:51:22;;;;;;;;;1.50;1.00;;;;;;;;5043509;28;64823;-79
2022/11/25 03:53:47;;;;;;;;;1.25;0.75;;;;;;;;5062210;28;61841;-79
2022/11/25 03:56:12;;;;;;;;;2.75;2.25;;;;;;;;5062315;28;61880;-79
2022/11/25 03:58:38;;;;;;;;;1.00;1.00;;;;;;;;5044857;28;61830;-79
2022/11/25 04:01:03;;;;;;;;;0.25;0.00;;;;;;;;5046873;28;63605;-79
2022/11/25 04:03:28;;;;;;;;;4.75;1.25;;;;;;;;5047526;28;62243;-79
2022/11/25 04:05:54;;;;;;;;;0.75;0.75;;;;;;;;5065379;28;61988;-79
2022/11/25 04:08:19;;;;;;;;;3.00;1.00;;;;;;;;5066100;28;61772;-79
2022/11/25 04:10:44;;;;;;;;;1.00;1.00;;;;;;;;5064769;28;61786;-79
2022/11/25 04:13:10;;;;;;;;;2.00;2.00;;;;;;;;5065482;28;61782;-79
2022/11/25 04:15:35;;;;;;;;;3.75;1.00;;;;;;;;5065594;28;62219;-79
2022/11/25 04:18:00;;;;;;;;;3.00;1.00;;;;;;;;5065643;28;61762;-79
2022/11/25 04:20:26;;;;;;;;;3.50;1.00;;;;;;;;5064352;28;61873;-79
2022/11/25 04:22:51;;;;;;;;;2.50;1.50;;;;;;;;5065465;28;61748;-79
2022/11/25 04:25:16;;;;;;;;;2.25;2.00;;;;;;;;5065066;28;62075;-79
2022/11/25 04:27:42;;;;;;;;;3.00;1.00;;;;;;;;5065190;28;61869;-79
2022/11/25 04:30:08;;;;;;;;;1.00;1.00;;;;;;;;5064772;28;61805;-79
2022/11/25 04:32:35;;;;;;;;;4.75;2.00;;;;;;;;5065293;28;61739;-79
2022/11/25 04:35:00;;;;;;;;;3.75;1.25;;;;;;;;5064993;28;61856;-79
2022/11/25 04:37:25;;;;;;;;;6.25;2.25;;;;;;;;5065216;28;61687;-79
2022/11/25 04:39:50;;;;;;;;;4.00;1.00;;;;;;;;5064510;28;61986;-79
2022/11/25 04:42:31;;;;;;;;;0.75;0.75;;;;;;;;5064972;28;62208;-79
2022/11/25 04:44:56;;;;;;;;;2.00;0.25;;;;;;;;5065186;28;61777;-79
2022/11/25 04:47:22;;;;;;;;;1.75;1.75;;;;;;;;5065387;28;61935;-79
2022/11/25 04:49:47;;;;;;;;;1.50;1.50;;;;;;;;5063442;28;62607;-79
2022/11/25 04:52:13;;;;;;;;;2.75;2.00;;;;;;;;5065009;28;61822;-79
2022/11/25 04:54:38;;;;;;;;;1.00;1.00;;;;;;;;5064744;28;61865;-79
2022/11/25 04:57:03;;;;;;;;;5.00;0.75;;;;;;;;5064809;28;61759;-79
2022/11/25 04:59:40;;;;;;;;;3.00;1.50;;;;;;;;5064361;28;61950;-79
2022/11/25 05:02:10;;;;;;;;;2.25;1.75;;;;;;;;5064650;28;61719;-79
2022/11/25 05:04:36;;;;;;;;;7.50;3.50;;;;;;;;5064498;28;61969;-79
2022/11/25 05:07:01;;;;;;;;;1.25;1.25;;;;;;;;5064738;28;62016;-79
2022/11/25 05:09:26;;;;;;;;;1.50;1.50;;;;;;;;5063944;28;62035;-79
2022/11/25 05:11:52;;;;;;;;;5.25;1.00;;;;;;;;5064728;28;61710;-79
2022/11/25 05:14:17;;;;;;;;;6.75;2.75;;;;;;;;5064801;28;61584;-79
2022/11/25 05:16:42;;;;;;;;;3.00;1.75;;;;;;;;5064768;28;62389;-79
2022/11/25 05:19:07;;;;;;;;;7.00;2.75;;;;;;;;5063183;28;63118;-79
2022/11/25 05:21:33;;;;;;;;;7.00;2.00;;;;;;;;5064662;28;62314;-79
2022/11/25 05:23:58;;;;;;;;;5.50;2.50;;;;;;;;5064256;28;61924;-79
2022/11/25 05:26:23;;;;;;;;;2.25;0.75;;;;;;;;5064590;28;61882;-79
2022/11/25 05:28:48;;;;;;;;;2.25;2.00;;;;;;;;5064053;28;62781;-79
2022/11/25 05:31:14;;;;;;;;;2.75;1.25;;;;;;;;5064018;28;61948;-79
2022/11/25 05:33:39;;;;;;;;;1.75;1.00;;;;;;;;5064398;28;61971;-79
2022/11/25 05:36:04;;;;;;;;;3.00;2.00;;;;;;;;5063795;28;62362;-79
2022/11/25 05:38:30;;;;;;;;;2.25;1.25;;;;;;;;5045438;28;63638;-79
2022/11/25 05:41:02;;;;;;;;;5.00;1.00;;;;;;;;5064261;28;62004;-79
2022/11/25 05:43:28;;;;;;;;;3.50;2.00;;;;;;;;5064207;28;61635;-79
2022/11/25 05:45:53;;;;;;;;;9.25;3.00;;;;;;;;5064192;28;61680;-79
2022/11/25 05:48:18;;;;;;;;;1.50;1.50;;;;;;;;5063411;28;62786;-79
2022/11/25 05:50:43;;;;;;;;;3.75;3.00;;;;;;;;5063467;28;61683;-79
2022/11/25 05:53:10;;;;;;;;;3.50;2.00;;;;;;;;5064017;28;62062;-79
2022/11/25 05:55:35;;;;;;;;;4.00;2.00;;;;;;;;5063962;28;61717;-79
2022/11/25 05:58:01;;;;;;;;;2.50;1.50;;;;;;;;5063418;28;61872;-78
2022/11/25 06:00:27;;;;;;;;;2.25;1.50;;;;;;;;5063307;28;61980;-79
2022/11/25 06:02:52;;;;;;;;;3.50;2.25;;;;;;;;5045741;28;61991;-79
2022/11/25 06:05:17;;;;;;;;;6.75;2.75;;;;;;;;5063042;28;62111;-79
2022/11/25 06:07:43;;;;;;;;;6.00;2.00;;;;;;;;5062532;28;61983;-80
2022/11/25 06:10:08;;;;;;;;;5.00;1.00;;;;;;;;5063778;28;62109;-79
2022/11/25 06:12:33;;;;;;;;;3.50;2.25;;;;;;;;5063729;28;62281;-79
2022/11/25 06:15:03;;;;;;;;;2.00;2.00;;;;;;;;5045801;28;62147;-79
2022/11/25 06:17:30;;;;;;;;;2.00;2.00;;;;;;;;5062680;28;61843;-78
2022/11/25 06:19:55;;;;;;;;;2.25;1.50;;;;;;;;5063273;28;61881;-81
2022/11/25 06:22:20;;;;;;;;;3.50;1.25;;;;;;;;5062778;28;61959;-78
2022/11/25 06:24:46;;;;;;;;;4.00;1.75;;;;;;;;5063669;28;61978;-80
2022/11/25 06:27:11;;;;;;;;;4.00;1.00;;;;;;;;5062705;28;63009;-82
2022/11/25 06:29:36;;;;;;;;;1.00;1.00;;;;;;;;5063508;28;61855;-79
2022/11/25 06:32:02;;;;;;;;;3.25;3.00;;;;;;;;5063356;28;61842;-80
2022/11/25 06:34:27;;;;;;;;;6.25;2.00;;;;;;;;5063068;28;62511;-81
2022/11/25 06:36:52;;;;;;;;;3.50;2.50;;;;;;;;5062331;28;62643;-80
2022/11/25 06:39:18;;;;;;;;;5.00;4.00;;;;;;;;5063297;28;62201;-79
2022/11/25 06:41:44;;;;;;;;;3.75;2.50;;;;;;;;5063026;28;61935;-80
2022/11/25 06:44:09;;;;;;;;;8.00;3.25;;;;;;;;5063155;28;62200;-79
2022/11/25 06:46:35;;;;;;;;;3.50;3.00;;;;;;;;5061241;28;62209;-80
2022/11/25 06:49:00;;;;;;;;;6.25;3.00;;;;;;;;5062088;28;62006;-81
2022/11/25 06:51:25;;;;;;;;;3.75;2.25;;;;;;;;5062013;28;62314;-80
2022/11/25 06:53:51;;;;;;;;;8.75;2.75;;;;;;;;5062408;28;61951;-79
2022/11/25 06:56:18;;;;;;;;;4.00;3.00;;;;;;;;5061917;28;62860;-80
2022/11/25 06:58:45;;;;;;;;;7.00;2.50;;;;;;;;5062327;28;61786;-80
2022/11/25 07:01:16;;;;;;;;;6.00;2.50;;;;;;;;5044293;28;62297;-79
2022/11/25 07:03:41;;;;;;;;;8.75;2.25;;;;;;;;5062437;28;61993;-79
2022/11/25 07:06:07;;;;;;;;;7.50;3.00;;;;;;;;5061658;28;61982;-79
2022/11/25 07:08:33;;;;;;;;;9.25;5.00;;;;;;;;5062965;28;61972;-81
2022/11/25 07:11:06;;;;;;;;;3.50;1.75;;;;;;;;5062688;28;61749;-80
2022/11/25 07:13:31;;;;;;;;;4.50;2.75;;;;;;;;5062812;28;61829;-80
2022/11/25 07:15:59;;;;;;;;;4.25;3.75;;;;;;;;5062890;28;61869;-80
2022/11/25 07:18:24;;;;;;;;;5.25;3.50;;;;;;;;5063230;28;61919;-80
2022/11/25 07:20:49;;;;;;;;;2.75;2.00;;;;;;;;5066497;28;62151;-80
2022/11/25 07:23:15;;;;;;;;;3.00;2.00;;;;;;;;5047220;28;61913;-80
2022/11/25 07:25:40;;;;;;;;;1.50;1.50;;;;;;;;5064368;28;61768;-80
2022/11/25 07:28:05;;;;;;;;;6.00;6.00;;;;;;;;5064248;28;62197;-80
2022/11/25 07:30:30;;;;;;;;;4.00;2.50;;;;;;;;5065052;28;62073;-80
2022/11/25 07:32:56;;;;;;;;;2.00;2.00;;;;;;;;5065081;28;62177;-80
2022/11/25 07:35:21;;;;;;;;;6.00;3.00;;;;;;;;5061644;28;62027;-80
2022/11/25 07:37:46;;;;;;;;;3.75;2.75;;;;;;;;5062093;28;61850;-80
2022/11/25 07:40:12;;;;;;;;;3.25;3.25;;;;;;;;5062128;28;61941;-81
2022/11/25 07:42:37;;;;;;;;;7.25;2.75;;;;;;;;5063274;28;61788;-82
2022/11/25 07:45:03;;;;;;;;;2.00;2.00;;;;;;;;5066333;28;61678;-83
2022/11/25 07:47:28;;;;;;;;;7.25;2.75;;;;;;;;5062967;28;62139;-82
2022/11/25 07:49:53;;;;;;;;;3.50;3.50;;;;;;;;5060475;28;61758;-82
2022/11/25 07:52:19;;;;;;;;;2.25;2.25;;;;;;;;5062074;28;61859;-81
2022/11/25 07:54:44;;;;;;;;;3.25;2.75;;;;;;;;5060585;28;61840;-81
2022/11/25 07:57:09;;;;;;;;;5.25;2.00;;;;;;;;5060860;28;62038;-81
2022/11/25 07:59:35;;;;;;;;;7.25;2.50;;;;;;;;5061471;28;62107;-81
2022/11/25 08:02:00;;;;;;;;;2.00;2.00;;;;;;;;5058195;28;61822;-80
2022/11/25 08:04:25;;;;;;;;;7.75;3.75;;;;;;;;5060009;28;62899;-80
2022/11/25 08:06:51;;;;;;;;;14.50;13.25;;;;;;;;5042541;28;62088;-81
2022/11/25 08:09:18;;;;;;;;;6.50;4.50;;;;;;;;5061621;28;61770;-80
2022/11/25 08:11:44;;;;;;;;;23.50;17.50;;;;;;;;5061293;28;62295;-82
2022/11/25 08:14:09;;;;;;;;;7.25;4.50;;;;;;;;5060612;28;62030;-81
2022/11/25 08:16:35;;;;;;;;;9.25;6.00;;;;;;;;5060029;28;62112;-81
2022/11/25 08:19:01;;;;;;;;;3.00;3.00;;;;;;;;5060887;28;61830;-81
2022/11/25 08:21:27;;;;;;;;;4.50;4.50;;;;;;;;5060269;28;62159;-83
2022/11/25 08:23:52;;;;;;;;;10.25;7.00;;;;;;;;5060214;28;62763;-81
2022/11/25 08:26:19;;;;;;;;;3.00;2.75;;;;;;;;5041099;28;62050;-82
2022/11/25 08:28:45;;;;;;;;;6.75;4.50;;;;;;;;5060235;28;61923;-82
2022/11/25 08:31:14;;;;;;;;;14.25;7.50;;;;;;;;5041543;28;62211;-82
2022/11/25 08:33:40;;;;;;;;;12.25;7.25;;;;;;;;5041101;28;63665;-81
2022/11/25 08:36:05;;;;;;;;;7.25;7.25;;;;;;;;5059316;28;61979;-81
2022/11/25 08:38:31;;;;;;;;;7.00;7.00;;;;;;;;5041740;28;61819;-82
2022/11/25 08:40:56;;;;;;;;;9.25;4.00;;;;;;;;5060632;28;61999;-82
2022/11/25 08:43:22;;;;;;;;;4.50;3.50;;;;;;;;5060045;28;61973;-82
2022/11/25 08:45:48;;;;;;;;;11.00;6.75;;;;;;;;5063202;28;61872;-82
2022/11/25 08:48:14;;;;;;;;;8.00;5.00;;;;;;;;5064276;28;61757;-83
2022/11/25 08:50:39;;;;;;;;;4.00;3.00;;;;;;;;5063931;28;61795;-83
2022/11/25 08:53:05;;;;;;;;;7.50;2.50;;;;;;;;5062643;28;62896;-83
2022/11/25 08:55:31;;;;;;;;;5.75;4.00;;;;;;;;5045068;28;62135;-82
2022/11/25 08:57:56;;;;;;;;;8.00;6.75;;;;;;;;5063063;28;61925;-83
2022/11/25 09:00:22;;;;;;;;;14.00;11.00;;;;;;;;5041537;28;61727;-82
2022/11/25 09:02:47;;;;;;;;;8.75;4.00;;;;;;;;5037315;28;62512;-82
2022/11/25 09:05:13;;;;;;;;;6.75;6.50;;;;;;;;5040179;28;62048;-82
2022/11/25 09:07:39;;;;;;;;;11.75;8.25;;;;;;;;5042951;28;62048;-82
2022/11/25 09:10:06;;;;;;;;;7.00;7.00;;;;;;;;5044254;28;61734;-81
2022/11/25 09:12:31;;;;;;;;;8.50;4.00;;;;;;;;5042807;28;61768;-82
2022/11/25 09:14:57;;;;;;;;;5.00;4.75;;;;;;;;5043244;28;62002;-82
2022/11/25 09:17:22;;;;;;;;;3.25;3.25;;;;;;;;5043553;28;62062;-82
2022/11/25 09:19:47;;;;;;;;;7.25;3.00;;;;;;;;5042891;28;61792;-83
2022/11/25 09:22:13;;;;;;;;;8.50;4.00;;;;;;;;5042567;28;65355;-83
2022/11/25 09:24:40;;;;;;;;;5.25;4.00;;;;;;;;5042184;28;62134;-83
2022/11/25 09:27:05;;;;;;;;;3.75;3.75;;;;;;;;5043909;28;62007;-82
2022/11/25 09:29:31;;;;;;;;;4.00;2.75;;;;;;;;5043031;28;61754;-82
2022/11/25 09:31:56;;;;;;;;;3.25;3.00;;;;;;;;5043360;28;62482;-82
2022/11/25 09:34:21;;;;;;;;;4.25;3.00;;;;;;;;5043884;28;61710;-83
2022/11/25 09:36:47;;;;;;;;;4.50;2.25;;;;;;;;5043168;28;61745;-83
2022/11/25 09:39:12;;;;;;;;;1.75;1.00;;;;;;;;5044084;28;62118;-82
2022/11/25 09:47:55;;;;;;;;;5.00;2.50;;;;;;;;5043609;28;62072;-84
2022/11/25 09:50:40;;;;;;;;;12.00;2.00;;;;;;;;5043168;28;61786;-83
2022/11/25 09:53:24;;;;;;;;;8.50;4.00;;;;;;;;5042045;28;61919;-82
2022/11/25 09:55:53;;;;;;;;;3.25;1.50;;;;;;;;5038920;28;62413;-82
2022/11/25 09:58:18;;;;;;;;;10.00;5.75;;;;;;;;5042193;28;61786;-83
2022/11/25 10:00:45;;;;;;;;;8.00;2.00;;;;;;;;5055301;28;62130;-82
2022/11/25 10:03:23;;;;;;;;;3.00;2.00;;;;;;;;5042875;28;63619;-82
2022/11/25 10:06:03;;;;;;;;;5.00;3.25;;;;;;;;5059805;28;62007;-83
2022/11/25 10:08:43;;;;;;;;;2.00;1.25;;;;;;;;5058806;28;61937;-82
2022/11/25 10:11:20;;;;;;;;;12.25;4.00;;;;;;;;5059517;28;61926;-82
2022/11/25 10:13:46;;;;;;;;;2.25;2.25;;;;;;;;5061489;28;61869;-82
2022/11/25 10:16:23;;;;;;;;;4.75;3.00;;;;;;;;5061721;28;61711;-82
2022/11/25 10:18:57;;;;;;;;;7.25;3.00;;;;;;;;5057835;28;61887;-82
2022/11/25 10:21:26;;;;;;;;;5.00;2.00;;;;;;;;5061637;28;62207;-82
2022/11/25 10:23:52;;;;;;;;;2.25;2.25;;;;;;;;5060132;28;62756;-82
2022/11/25 10:26:20;;;;;;;;;2.75;2.75;;;;;;;;5062367;28;61890;-82
2022/11/25 10:28:50;;;;;;;;;1.25;1.25;;;;;;;;5062298;28;61996;-79
2022/11/25 10:31:17;;;;;;;;;3.50;3.50;;;;;;;;5061120;28;61778;-80
2022/11/25 10:33:51;;;;;;;;;4.00;1.50;;;;;;;;5060816;28;61789;-79
2022/11/25 10:36:23;;;;;;;;;5.75;2.00;;;;;;;;5059065;28;62021;-79
2022/11/25 10:38:48;;;;;;;;;3.00;3.00;;;;;;;;5061361;28;61730;-79
2022/11/25 10:41:19;;;;;;;;;2.75;2.75;;;;;;;;5046142;28;61924;-79
2022/11/25 10:43:46;;;;;;;;;6.25;1.25;;;;;;;;5043016;28;63473;-80
2022/11/25 10:46:23;;;;;;;;;3.25;1.25;;;;;;;;5061088;28;61865;-79
2022/11/25 10:49:07;;;;;;;;;5.50;3.75;;;;;;;;5060829;28;61788;-79
2022/11/25 10:51:32;;;;;;;;;2.50;2.50;;;;;;;;5075974;28;62028;-79
2022/11/25 10:54:27;;;;;;;;;3.25;2.00;;;;;;;;5060711;28;61763;-79
2022/11/25 10:56:57;;;;;;;;;3.75;1.25;;;;;;;;5041968;28;62030;-80
2022/11/25 10:59:24;;;;;;;;;4.00;1.25;;;;;;;;5061362;28;62400;-80
2022/11/25 11:01:51;;;;;;;;;4.50;2.00;;;;;;;;5061117;28;62079;-80
2022/11/25 11:04:17;;;;;;;;;7.00;2.25;;;;;;;;5042576;28;65162;-80
2022/11/25 11:06:46;;;;;;;;;1.50;1.00;;;;;;;;5060998;28;62012;-80
2022/11/25 11:09:32;;;;;;;;;5.50;2.75;;;;;;;;5057778;28;62180;-80
2022/11/25 11:12:06;;;;;;;;;2.00;1.25;;;;;;;;5061810;28;61932;-80
2022/11/25 11:14:33;;;;;;;;;7.75;3.00;;;;;;;;5061062;28;62722;-80
2022/11/25 11:16:58;;;;;;;;;3.00;1.00;;;;;;;;5045162;28;61965;-79
2022/11/25 11:19:25;;;;;;;;;3.00;1.50;;;;;;;;5061107;28;61966;-79
2022/11/25 11:21:51;;;;;;;;;3.50;3.50;;;;;;;;5062058;28;62049;-81
2022/11/25 11:24:36;;;;;;;;;3.50;1.50;;;;;;;;5061136;28;61929;-81
2022/11/25 11:27:21;;;;;;;;;9.50;3.00;;;;;;;;5062222;28;61876;-81
2022/11/25 11:29:47;;;;;;;;;2.25;2.25;;;;;;;;5063111;28;62013;-80
2022/11/25 11:32:23;;;;;;;;;1.00;1.00;;;;;;;;5061890;28;61857;-80
2022/11/25 11:34:56;;;;;;;;;4.75;1.00;;;;;;;;5059427;28;62127;-80
2022/11/25 11:37:21;;;;;;;;;5.00;1.75;;;;;;;;5059487;28;62038;-81
2022/11/25 11:39:59;;;;;;;;;1.00;1.00;;;;;;;;5058010;28;61948;-81
2022/11/25 11:42:40;;;;;;;;;2.75;1.50;;;;;;;;5060275;28;61857;-81
2022/11/25 11:45:17;;;;;;;;;3.00;3.00;;;;;;;;5060978;28;61787;-81
2022/11/25 11:47:45;;;;;;;;;2.50;2.50;;;;;;;;5061474;28;61854;-82
2022/11/25 11:50:19;;;;;;;;;3.25;2.00;;;;;;;;5061033;28;62093;-82
2022/11/25 11:53:04;;;;;;;;;9.25;2.00;;;;;;;;5063138;28;62010;-82
2022/11/25 11:55:45;;;;;;;;;3.00;1.50;;;;;;;;5060911;28;61943;-83
2022/11/25 11:58:20;;;;;;;;;2.25;1.00;;;;;;;;5060853;28;61999;-83
2022/11/25 12:01:08;;;;;;;;;4.25;3.00;;;;;;;;5057730;28;61765;-82
2022/11/25 12:03:51;;;;;;;;;2.75;2.75;;;;;;;;5058465;28;61758;-82
2022/11/25 12:06:18;;;;;;;;;5.00;2.00;;;;;;;;5058532;28;62231;-82
2022/11/25 12:08:52;;;;;;;;;3.00;1.50;;;;;;;;5059192;28;61854;-82
2022/11/25 12:11:19;;;;;;;;;3.00;2.00;;;;;;;;5044733;28;63073;-82
2022/11/25 12:13:48;;;;;;;;;3.00;2.00;;;;;;;;5059271;28;61974;-80
2022/11/25 12:16:20;;;;;;;;;2.00;2.00;;;;;;;;5055640;28;63131;-82
2022/11/25 12:18:55;;;;;;;;;4.50;1.00;;;;;;;;5058062;28;62338;-81
2022/11/25 12:21:36;;;;;;;;;7.00;2.50;;;;;;;;5061789;28;61950;-80
2022/11/25 12:24:20;;;;;;;;;5.50;2.00;;;;;;;;5076995;28;62133;-81
2022/11/25 12:26:45;;;;;;;;;3.00;2.00;;;;;;;;5059369;28;62350;-81
2022/11/25 12:29:31;;;;;;;;;1.00;1.00;;;;;;;;5063453;28;61990;-80
2022/11/25 12:32:05;;;;;;;;;1.75;1.75;;;;;;;;5018807;28;61981;-81
2022/11/25 12:34:43;;;;;;;;;1.25;1.25;;;;;;;;5019698;28;61821;-81
2022/11/25 12:37:14;;;;;;;;;5.50;1.00;;;;;;;;5016419;28;61978;-81
2022/11/25 12:39:44;;;;;;;;;3.75;2.00;;;;;;;;5002128;28;62171;-81
2022/11/25 12:42:21;;;;;;;;;8.50;2.75;;;;;;;;5020501;28;62212;-80
2022/11/25 12:45:05;;;;;;;;;4.25;2.00;;;;;;;;5019214;28;61922;-80
2022/11/25 12:47:31;;;;;;;;;1.00;1.00;;;;;;;;5019681;28;62831;-80
2022/11/25 12:49:56;;;;;;;;;2.75;2.25;;;;;;;;5019581;28;61995;-79
2022/11/25 12:52:21;;;;;;;;;4.00;2.00;;;;;;;;5021324;28;61960;-81
2022/11/25 12:54:53;;;;;;;;;5.00;2.00;;;;;;;;5021442;28;62064;-79
2022/11/25 12:57:37;;;;;;;;;4.75;2.25;;;;;;;;5019052;28;61798;-80
2022/11/25 13:00:20;;;;;;;;;2.00;1.00;;;;;;;;5020049;28;61934;-80
2022/11/25 13:03:04;;;;;;;;;2.00;1.00;;;;;;;;5020882;28;61802;-80
2022/11/25 13:05:45;;;;;;;;;2.50;1.25;;;;;;;;5020413;28;61989;-80
2022/11/25 13:08:26;;;;;;;;;8.00;4.00;;;;;;;;5023294;28;62027;-80
2022/11/25 13:11:00;;;;;;;;;1.00;1.00;;;;;;;;5043513;28;61818;-80
2022/11/25 13:13:28;;;;;;;;;4.67;2.33;;;;;;;;5044297;28;62001;-80
2022/11/25 13:15:53;;;;;;;;;3.33;0.00;;;;;;;;5044021;28;62137;-79
2022/11/25 13:18:20;;;;;;;;;5.00;3.00;;;;;;;;5043698;28;63124;-79
2022/11/25 13:20:50;;;;;;;;;3.00;1.33;;;;;;;;5042940;28;61782;-80
2022/11/25 13:23:15;;;;;;;;;8.67;1.00;;;;;;;;5061425;28;61930;-80
2022/11/25 13:25:42;;;;;;;;;2.67;2.33;;;;;;;;5062890;28;61849;-81
2022/11/25 13:28:26;;;;;;;;;2.00;2.00;;;;;;;;5062031;28;62147;-82
2022/11/25 13:30:52;;;;;;;;;2.33;2.00;;;;;;;;5062173;28;62276;-82
2022/11/25 13:33:17;;;;;;;;;5.75;3.50;;;;;;;;5062705;28;61938;-83
2022/11/25 13:35:42;;;;;;;;;2.33;1.00;;;;;;;;5063202;28;61942;-78
2022/11/25 13:38:27;;;;;;;;;2.00;1.00;;;;;;;;5044546;28;63792;-78
2022/11/25 13:40:55;;;;;;;;;4.00;1.25;;;;;;;;5061321;28;62048;-78
2022/11/25 13:43:30;;;;;;;;;3.00;1.00;;;;;;;;5062230;28;62010;-78
2022/11/25 13:45:56;;;;;;;;;2.00;1.00;;;;;;;;5077667;28;61860;-78
2022/11/25 13:48:27;;;;;;;;;4.25;1.00;;;;;;;;5061753;28;62116;-78
2022/11/25 13:51:13;;;;;;;;;1.25;1.00;;;;;;;;5061377;28;61929;-79
2022/11/25 13:53:38;;;;;;;;;2.00;2.00;;;;;;;;5059409;28;61874;-77
2022/11/25 13:56:22;;;;;;;;;3.50;3.00;;;;;;;;5063666;28;61738;-78
2022/11/25 13:59:06;;;;;;;;;1.50;1.00;;;;;;;;5062666;28;61887;-78
2022/11/25 14:01:31;;;;;;;;;6.00;3.00;;;;;;;;5040847;28;62143;-78
2022/11/25 14:03:59;;;;;;;;;3.75;1.75;;;;;;;;5040152;28;62009;-78
2022/11/25 14:06:50;;;;;;;;;3.50;3.00;;;;;;;;5041085;28;62061;-78
2022/11/25 14:09:33;;;;;;;;;3.75;2.50;;;;;;;;5041509;28;61806;-78
2022/11/25 14:11:59;;;;;;;;;1.75;1.50;;;;;;;;5039535;28;61989;-78
2022/11/25 14:14:33;;;;;;;;;4.25;1.00;;;;;;;;5042300;28;61852;-79
2022/11/25 14:16:58;;;;;;;;;54.50;39.50;;;;;;;;5039519;28;62177;-78
2022/11/25 14:19:32;;;;;;;;;1.00;1.00;;;;;;;;5041262;28;61897;-78
2022/11/25 14:22:16;;;;;;;;;1.00;1.00;;;;;;;;5041600;28;61852;-78
2022/11/25 14:24:41;;;;;;;;;2.25;1.00;;;;;;;;5039887;28;62685;-78
2022/11/25 14:27:17;;;;;;;;;5.50;1.00;;;;;;;;5041313;28;61950;-78
2022/11/25 14:29:45;;;;;;;;;3.25;2.00;;;;;;;;5037156;28;61940;-78
2022/11/25 14:32:18;;;;;;;;;4.50;2.00;;;;;;;;5041245;28;62077;-78
2022/11/25 14:34:46;;;;;;;;;1.50;1.00;;;;;;;;5040570;28;62044;-78
2022/11/25 14:37:19;;;;;;;;;1.00;1.00;;;;;;;;5041048;28;61695;-78
2022/11/25 14:39:59;;;;;;;;;2.50;0.50;;;;;;;;5040606;28;62384;-78
2022/11/25 14:42:30;;;;;;;;;3.75;2.50;;;;;;;;5040091;28;61949;-79
2022/11/25 14:44:57;;;;;;;;;3.00;1.00;;;;;;;;5041235;28;62181;-79
2022/11/25 14:47:27;;;;;;;;;2.00;1.00;;;;;;;;5038364;28;62687;-78
2022/11/25 14:49:53;;;;;;;;;6.75;1.75;;;;;;;;5040096;28;61953;-79
2022/11/25 14:52:27;;;;;;;;;4.75;2.00;;;;;;;;5040691;28;61793;-79
2022/11/25 14:54:54;;;;;;;;;3.00;2.00;;;;;;;;5041141;28;61881;-79
2022/11/25 14:57:26;;;;;;;;;2.00;0.50;;;;;;;;5040465;28;62567;-78
2022/11/25 14:59:55;;;;;;;;;3.25;1.75;;;;;;;;5044886;28;61887;-78